Time;durP1;ratioP1;P1;durP2;ratioP2;P2;SDS_P1;SDS_P2;PMS_P1;PMS_P2;Temp;Humidity;BMP_temperature;BMP_pressure;BME280_temperature;BME280_humidity;BME280_pressure;Samples;Min_cycle;Max_cycle;Signal;HPM_P1;HPM_P2
2022/10/02 00:02:18;;;;;;;7.32;2.35;;;14.50;85.90;;;;;;5077908;28;20112;-91
2022/10/02 00:05:02;;;;;;;6.55;2.10;;;14.50;85.80;;;;;;5063999;28;20391;-89
2022/10/02 00:07:34;;;;;;;7.28;2.00;;;14.40;85.70;;;;;;5063314;28;20036;-89
2022/10/02 00:10:13;;;;;;;6.88;1.95;;;14.50;85.80;;;;;;5060503;28;20067;-88
2022/10/02 00:12:39;;;;;;;8.68;2.22;;;14.50;85.70;;;;;;5068721;28;20020;-87
2022/10/02 00:15:21;;;;;;;5.90;1.83;;;14.40;85.60;;;;;;5059063;28;20103;-87
2022/10/02 00:17:51;;;;;;;4.63;1.60;;;14.40;85.50;;;;;;5069483;28;20029;-88
2022/10/02 00:20:20;;;;;;;5.90;1.58;;;14.40;85.30;;;;;;5063640;28;20040;-88
2022/10/02 00:22:58;;;;;;;3.83;1.77;;;14.40;85.20;;;;;;5059588;28;20025;-87
2022/10/02 00:25:27;;;;;;;4.93;1.70;;;14.30;85.10;;;;;;5060649;28;20032;-87
2022/10/02 00:27:53;;;;;;;3.90;1.30;;;14.30;85.00;;;;;;5062448;28;20041;-88
2022/10/02 00:30:18;;;;;;;4.68;1.42;;;14.30;84.90;;;;;;5062053;28;20082;-87
2022/10/02 00:33:18;;;;;;;3.90;1.40;;;14.30;84.80;;;;;;5063860;28;20490;-89
2022/10/02 00:35:59;;;;;;;4.43;1.20;;;14.30;84.80;;;;;;5060971;28;20037;-89
2022/10/02 00:38:25;;;;;;;3.85;1.30;;;14.30;84.70;;;;;;5057431;28;20056;-89
2022/10/02 00:41:33;;;;;;;2.65;1.10;;;14.20;84.80;;;;;;5063909;28;20458;-89
2022/10/02 00:44:29;;;;;;;3.50;1.00;;;14.20;84.80;;;;;;5067977;28;20044;-89
2022/10/02 00:47:25;;;;;;;3.80;1.02;;;14.10;84.70;;;;;;5062230;28;20732;-89
2022/10/02 00:50:14;;;;;;;2.50;1.00;;;14.10;84.70;;;;;;5059073;28;20496;-88
2022/10/02 00:52:50;;;;;;;2.80;1.00;;;14.00;84.70;;;;;;5057500;28;20025;-87
2022/10/02 00:55:34;;;;;;;3.35;1.15;;;14.00;84.70;;;;;;5056316;28;20028;-89
2022/10/02 00:58:22;;;;;;;4.07;1.35;;;14.00;84.90;;;;;;5062183;28;20032;-89
2022/10/02 01:01:12;;;;;;;4.45;1.20;;;13.90;84.80;;;;;;5063447;28;20020;-89
2022/10/02 01:03:46;;;;;;;3.38;0.98;;;13.90;84.80;;;;;;5061438;28;20407;-87
2022/10/02 01:06:12;;;;;;;3.28;1.20;;;13.90;84.80;;;;;;5064086;28;20036;-90
2022/10/02 01:08:38;;;;;;;4.20;1.20;;;13.90;84.70;;;;;;5056765;28;20055;-90
2022/10/02 01:11:05;;;;;;;4.15;1.63;;;13.90;84.70;;;;;;5058098;28;20020;-90
2022/10/02 01:13:33;;;;;;;3.45;1.40;;;13.90;84.70;;;;;;5055606;28;20495;-88
2022/10/02 01:15:59;;;;;;;3.47;1.27;;;13.90;84.70;;;;;;5063230;28;20044;-87
2022/10/02 01:18:27;;;;;;;4.43;1.50;;;13.90;84.70;;;;;;5054101;28;20060;-87
2022/10/02 01:21:05;;;;;;;4.43;1.50;;;13.90;84.60;;;;;;5062192;28;20424;-87
2022/10/02 01:23:51;;;;;;;5.60;1.60;;;13.90;84.60;;;;;;5062864;28;20108;-87
2022/10/02 01:26:17;;;;;;;4.15;1.58;;;13.90;84.70;;;;;;5055184;28;20125;-92
2022/10/02 01:28:43;;;;;;;4.18;1.60;;;13.90;84.70;;;;;;5058063;28;20057;-91
2022/10/02 01:31:12;;;;;;;5.30;1.60;;;13.90;84.70;;;;;;5067088;28;20021;-91
2022/10/02 01:33:41;;;;;;;4.53;1.73;;;13.90;84.70;;;;;;5061636;28;20024;-90
2022/10/02 01:36:10;;;;;;;5.05;1.67;;;13.90;84.60;;;;;;5064471;28;20049;-90
2022/10/02 01:38:36;;;;;;;4.78;1.60;;;13.90;84.60;;;;;;5061128;28;20025;-90
2022/10/02 01:41:02;;;;;;;5.95;1.83;;;14.00;84.70;;;;;;5060725;28;20025;-91
2022/10/02 01:43:32;;;;;;;5.68;1.80;;;14.00;84.70;;;;;;5060146;28;20085;-92
2022/10/02 01:46:16;;;;;;;6.22;2.17;;;14.00;84.70;;;;;;5060315;28;20059;-90
2022/10/02 01:49:18;;;;;;;7.82;2.30;;;14.00;84.80;;;;;;5062074;28;20051;-90
2022/10/02 01:52:05;;;;;;;5.18;2.13;;;14.00;85.30;;;;;;5061763;28;20122;-87
2022/10/02 01:54:49;;;;;;;8.80;3.50;;;14.00;85.00;;;;;;5060706;28;20069;-86
2022/10/02 01:57:41;;;;;;;7.85;3.20;;;14.00;85.20;;;;;;5055270;28;20032;-88
2022/10/02 02:00:28;;;;;;;6.70;2.67;;;14.10;85.50;;;;;;5057639;28;20024;-86
2022/10/02 02:03:23;;;;;;;8.70;3.75;;;14.00;85.60;;;;;;5054755;28;20070;-90
2022/10/02 02:06:22;;;;;;;9.75;3.83;;;14.10;86.10;;;;;;5059251;28;20029;-91
2022/10/02 02:09:02;;;;;;;5.10;2.88;;;14.10;86.30;;;;;;5059431;28;20044;-91
2022/10/02 02:11:28;;;;;;;13.18;4.95;;;14.00;86.40;;;;;;5064387;28;20021;-88
2022/10/02 02:13:59;;;;;;;9.70;4.38;;;14.00;87.00;;;;;;5062218;28;20052;-90
2022/10/02 02:16:47;;;;;;;15.65;7.32;;;14.00;87.20;;;;;;5061277;28;20028;-91
2022/10/02 02:19:35;;;;;;;10.80;5.72;;;14.10;87.60;;;;;;5062824;28;20064;-91
2022/10/02 02:22:11;;;;;;;9.77;4.43;;;14.00;88.20;;;;;;5058453;28;20087;-92
2022/10/02 02:24:46;;;;;;;9.82;4.65;;;14.10;88.20;;;;;;5059161;28;20497;-92
2022/10/02 02:27:18;;;;;;;15.30;6.72;;;14.10;88.00;;;;;;5062500;28;20029;-91
2022/10/02 02:29:48;;;;;;;13.20;5.82;;;14.10;88.10;;;;;;5060466;28;20044;-91
2022/10/02 02:32:19;;;;;;;11.48;5.45;;;14.10;88.10;;;;;;5063995;28;20140;-92
2022/10/02 02:34:50;;;;;;;13.90;5.72;;;14.10;88.00;;;;;;5064917;28;20033;-92
2022/10/02 02:37:20;;;;;;;16.27;5.68;;;14.20;88.20;;;;;;5052846;28;20016;-92
2022/10/02 02:39:57;;;;;;;9.45;5.15;;;14.20;88.10;;;;;;5054266;28;20057;-91
2022/10/02 02:42:28;;;;;;;15.55;5.97;;;14.20;88.60;;;;;;5059948;28;20494;-91
2022/10/02 02:45:12;;;;;;;12.27;4.95;;;14.20;88.00;;;;;;5057678;28;20022;-91
2022/10/02 02:48:00;;;;;;;9.02;4.55;;;14.30;88.60;;;;;;5061825;28;20429;-90
2022/10/02 02:50:35;;;;;;;10.63;4.97;;;14.30;87.80;;;;;;5060597;28;20032;-91
2022/10/02 02:53:36;;;;;;;12.65;5.03;;;14.30;87.70;;;;;;5059361;28;20032;-92
2022/10/02 02:56:05;;;;;;;13.55;5.60;;;14.30;87.80;;;;;;5065949;28;20571;-88
2022/10/02 02:58:34;;;;;;;9.77;4.43;;;14.20;87.90;;;;;;5054087;28;20056;-88
2022/10/02 03:00:59;;;;;;;10.85;4.85;;;14.20;88.00;;;;;;5061237;28;20353;-88
2022/10/02 03:03:25;;;;;;;13.15;5.00;;;14.20;88.10;;;;;;5063044;28;20036;-88
2022/10/02 03:06:21;;;;;;;11.80;4.80;;;14.20;88.20;;;;;;5058027;28;20021;-87
2022/10/02 03:08:50;;;;;;;11.43;4.72;;;14.20;88.30;;;;;;5058923;28;20053;-89
2022/10/02 03:11:34;;;;;;;11.77;4.30;;;14.10;88.20;;;;;;5060641;28;20028;-88
2022/10/02 03:14:30;;;;;;;9.52;4.10;;;14.20;88.30;;;;;;5056620;28;20031;-87
2022/10/02 03:17:11;;;;;;;7.68;3.40;;;14.10;88.20;;;;;;5059909;28;20113;-87
2022/10/02 03:20:04;;;;;;;9.57;3.55;;;14.20;88.20;;;;;;5058861;28;20542;-88
2022/10/02 03:22:53;;;;;;;10.45;3.90;;;14.10;88.10;;;;;;5057432;28;20025;-86
2022/10/02 03:25:45;;;;;;;9.20;3.53;;;14.10;88.90;;;;;;5057448;28;20501;-87
2022/10/02 03:28:14;;;;;;;;;;;14.10;88.40;;;;;;5057910;28;20032;-89
2022/10/02 03:30:42;;;;;;;8.23;3.13;;;14.10;88.10;;;;;;5053191;28;19920;-89
2022/10/02 03:33:11;;;;;;;8.60;3.30;;;14.10;88.40;;;;;;5057698;28;20076;-89
2022/10/02 03:35:38;;;;;;;8.30;3.03;;;14.00;88.40;;;;;;5056515;28;20056;-89
2022/10/02 03:38:08;;;;;;;7.15;3.05;;;14.00;88.40;;;;;;5064090;28;20510;-91
2022/10/02 03:40:35;;;;;;;10.88;3.35;;;14.00;88.50;;;;;;5058724;28;20502;-93
2022/10/02 03:43:00;;;;;;;9.05;3.25;;;14.00;88.50;;;;;;5071844;28;20083;-94
2022/10/02 03:45:27;;;;;;;9.80;3.38;;;14.00;88.50;;;;;;5075913;28;20063;-94
2022/10/02 03:47:53;;;;;;;10.77;3.30;;;14.10;88.50;;;;;;5071209;28;20020;-95
2022/10/02 03:50:20;;;;;;;9.95;3.58;;;14.00;88.40;;;;;;5061144;28;20426;-92
2022/10/02 03:52:49;;;;;;;10.63;3.20;;;14.10;88.50;;;;;;5064263;28;20123;-91
2022/10/02 03:55:17;;;;;;;11.10;3.42;;;14.10;88.40;;;;;;5069181;28;20024;-92
2022/10/02 03:57:45;;;;;;;13.38;3.72;;;14.10;88.40;;;;;;5068962;28;20033;-93
2022/10/02 04:00:32;;;;;;;9.40;3.15;;;14.10;88.40;;;;;;5077111;28;20018;-94
2022/10/02 04:03:01;;;;;;;8.40;2.80;;;14.10;88.40;;;;;;5077862;28;20028;-94
2022/10/02 04:05:39;;;;;;;8.15;2.60;;;14.10;88.50;;;;;;5076256;28;20124;-95
2022/10/02 04:08:35;;;;;;;9.20;2.90;;;14.10;88.50;;;;;;5069727;28;20033;-93
2022/10/02 04:11:13;;;;;;;6.97;2.95;;;14.10;88.50;;;;;;5070717;28;20028;-92
2022/10/02 04:13:45;;;;;;;7.78;2.95;;;14.10;88.50;;;;;;5066320;28;20556;-93
2022/10/02 04:16:23;;;;;;;10.43;2.72;;;14.10;88.50;;;;;;5062310;28;20067;-92
2022/10/02 04:19:16;;;;;;;13.52;3.50;;;14.10;88.70;;;;;;5061587;28;20025;-94
2022/10/02 04:21:49;;;;;;;11.30;2.88;;;14.10;88.80;;;;;;5069204;28;20127;-92
2022/10/02 04:24:32;;;;;;;6.65;2.75;;;14.10;88.70;;;;;;5064629;28;20094;-93
2022/10/02 04:27:10;;;;;;;9.75;3.30;;;14.10;88.80;;;;;;5060799;28;20025;-93
2022/10/02 04:29:49;;;;;;;12.63;3.28;;;14.00;88.80;;;;;;5080184;28;20497;-93
2022/10/02 04:32:26;;;;;;;8.65;2.72;;;14.00;89.20;;;;;;5065748;28;20020;-93
2022/10/02 04:34:53;;;;;;;11.48;3.00;;;14.00;89.20;;;;;;5064820;28;20025;-92
2022/10/02 04:37:45;;;;;;;13.30;3.17;;;14.00;89.20;;;;;;5079085;28;20084;-93
2022/10/02 04:40:49;;;;;;;8.73;3.28;;;14.00;89.20;;;;;;5062904;28;20021;-92
2022/10/02 04:43:38;;;;;;;8.15;2.63;;;14.00;89.30;;;;;;5055471;28;20420;-91
2022/10/02 04:46:26;;;;;;;9.45;3.10;;;14.00;89.30;;;;;;5060184;28;20029;-90
2022/10/02 04:49:29;;;;;;;13.52;3.60;;;14.00;89.40;;;;;;5064894;28;20036;-90
2022/10/02 04:52:22;;;;;;;11.82;3.03;;;13.90;89.70;;;;;;5066362;28;20024;-92
2022/10/02 04:55:01;;;;;;;9.77;2.85;;;14.00;89.90;;;;;;5060523;28;20009;-90
2022/10/02 04:57:47;;;;;;;10.48;3.17;;;14.00;89.80;;;;;;5058099;28;20050;-91
2022/10/02 05:00:19;;;;;;;14.02;3.47;;;14.00;89.70;;;;;;5064287;28;20139;-91
2022/10/02 05:03:00;;;;;;;15.82;3.35;;;14.00;89.70;;;;;;5063209;28;20097;-90
2022/10/02 05:05:38;;;;;;;10.68;3.58;;;14.00;89.70;;;;;;5061207;28;20086;-89
2022/10/02 05:08:28;;;;;;;9.68;3.22;;;14.00;89.70;;;;;;5063640;28;20037;-89
2022/10/02 05:11:09;;;;;;;11.05;3.60;;;14.00;89.60;;;;;;5059986;28;20036;-91
2022/10/02 05:14:03;;;;;;;9.87;3.30;;;14.00;89.70;;;;;;5060569;28;20491;-91
2022/10/02 05:16:54;;;;;;;9.38;2.80;;;14.00;89.70;;;;;;5064097;28;20525;-91
2022/10/02 05:19:44;;;;;;;9.13;3.20;;;14.00;89.70;;;;;;5061283;28;20086;-88
2022/10/02 05:22:47;;;;;;;8.15;2.63;;;14.00;89.70;;;;;;5059527;28;20275;-92
2022/10/02 05:25:39;;;;;;;11.45;3.53;;;14.00;89.70;;;;;;5060334;28;20025;-91
2022/10/02 05:28:08;;;;;;;;;;;14.00;89.80;;;;;;5063899;28;20029;-92
2022/10/02 05:31:03;;;;;;;10.80;3.17;;;14.00;89.60;;;;;;5057315;28;20279;-91
2022/10/02 05:34:19;;;;;;;12.52;4.30;;;14.00;89.90;;;;;;5066446;28;20044;-91
2022/10/02 05:37:01;;;;;;;12.20;3.88;;;14.00;89.90;;;;;;5062682;28;20150;-91
2022/10/02 05:39:26;;;;;;;;;;;14.00;89.80;;;;;;5063080;28;20020;-90
2022/10/02 05:42:03;;;;;;;15.07;4.25;;;14.00;89.60;;;;;;5064942;28;19915;-90
2022/10/02 05:44:42;;;;;;;9.73;3.40;;;14.00;90.00;;;;;;5068159;28;20048;-94
2022/10/02 05:47:28;;;;;;;8.70;2.83;;;14.00;90.00;;;;;;5084800;28;20021;-92
2022/10/02 05:50:13;;;;;;;11.52;3.60;;;14.00;90.00;;;;;;5062026;28;20094;-91
2022/10/02 05:52:50;;;;;;;14.65;4.20;;;14.00;90.00;;;;;;5066459;28;20016;-91
2022/10/02 05:55:39;;;;;;;16.17;4.30;;;14.00;90.10;;;;;;5060871;28;20012;-87
2022/10/02 05:58:09;;;;;;;14.90;4.10;;;13.90;90.20;;;;;;5064833;28;20034;-89
2022/10/02 06:00:58;;;;;;;12.80;3.70;;;13.90;90.20;;;;;;5063226;28;20042;-89
2022/10/02 06:03:32;;;;;;;9.63;3.45;;;14.00;90.30;;;;;;5062295;28;20032;-89
2022/10/02 06:06:25;;;;;;;12.30;3.33;;;14.00;90.20;;;;;;5058439;28;20029;-90
2022/10/02 06:09:01;;;;;;;;;;;14.00;90.20;;;;;;5059763;28;20039;-90
2022/10/02 06:11:40;;;;;;;12.75;3.28;;;14.10;90.10;;;;;;5060137;28;20016;-90
2022/10/02 06:14:26;;;;;;;8.13;2.60;;;14.10;90.10;;;;;;5059346;28;20079;-91
2022/10/02 06:17:06;;;;;;;8.00;2.90;;;14.20;90.10;;;;;;5063199;28;20032;-91
2022/10/02 06:19:37;;;;;;;6.57;2.50;;;14.30;90.00;;;;;;5061712;28;20448;-92
2022/10/02 06:22:11;;;;;;;9.88;3.10;;;14.30;90.00;;;;;;5065597;28;20025;-91
2022/10/02 06:25:05;;;;;;;9.55;2.72;;;14.30;90.00;;;;;;5065139;28;21033;-92
2022/10/02 06:27:46;;;;;;;8.88;2.40;;;14.40;90.00;;;;;;5068444;28;20037;-92
2022/10/02 06:30:14;;;;;;;7.22;2.13;;;14.40;90.00;;;;;;5069164;28;20064;-92
2022/10/02 06:33:06;;;;;;;10.52;2.95;;;14.40;89.90;;;;;;5067685;28;20025;-86
2022/10/02 06:35:31;;;;;;;9.20;2.50;;;14.50;89.90;;;;;;5063078;28;20029;-86
2022/10/02 06:38:03;;;;;;;7.53;2.47;;;14.50;89.90;;;;;;5064748;28;20032;-87
2022/10/02 06:40:52;;;;;;;;;;;14.50;89.80;;;;;;5061485;28;20028;-92
2022/10/02 06:43:43;;;;;;;6.15;2.30;;;14.50;89.60;;;;;;5063732;28;19915;-87
2022/10/02 06:46:25;;;;;;;7.05;2.50;;;14.50;89.70;;;;;;5062745;28;20035;-88
2022/10/02 06:49:20;;;;;;;8.60;2.45;;;14.60;89.80;;;;;;5063022;28;20067;-88
2022/10/02 06:51:58;;;;;;;9.15;2.58;;;14.60;89.80;;;;;;5079778;28;20032;-87
2022/10/02 06:55:08;;;;;;;9.55;2.65;;;14.60;89.70;;;;;;5060147;28;20075;-88
2022/10/02 06:57:47;;;;;;;10.20;2.55;;;14.60;89.70;;;;;;5062286;28;20072;-88
2022/10/02 07:00:17;;;;;;;9.60;2.53;;;14.70;89.60;;;;;;5055617;28;20025;-88
2022/10/02 07:03:21;;;;;;;7.10;2.30;;;14.70;89.50;;;;;;5058091;28;20118;-88
2022/10/02 07:06:09;;;;;;;7.80;2.28;;;14.80;89.40;;;;;;5054357;28;20055;-88
2022/10/02 07:08:57;;;;;;;9.95;2.55;;;14.90;89.30;;;;;;5058241;28;20032;-87
2022/10/02 07:11:54;;;;;;;7.20;2.55;;;15.00;89.10;;;;;;5062073;28;20028;-87
2022/10/02 07:14:46;;;;;;;7.72;2.45;;;15.10;88.90;;;;;;5058749;28;20032;-87
2022/10/02 07:17:38;;;;;;;;;;;15.10;88.60;;;;;;5054463;28;20025;-87
2022/10/02 07:20:33;;;;;;;6.43;2.63;;;15.20;88.40;;;;;;5067090;28;19913;-87
2022/10/02 07:23:38;;;;;;;6.20;2.10;;;15.20;88.20;;;;;;5061836;28;20029;-87
2022/10/02 07:26:19;;;;;;;10.50;2.65;;;15.30;88.10;;;;;;5066564;28;20021;-87
2022/10/02 07:28:56;;;;;;;8.10;2.42;;;15.30;88.00;;;;;;5058210;28;20025;-87
2022/10/02 07:31:44;;;;;;;7.88;2.40;;;15.40;87.90;;;;;;5063016;28;20067;-94
2022/10/02 07:34:26;;;;;;;8.18;2.25;;;15.50;87.80;;;;;;5057765;28;20033;-87
2022/10/02 07:37:04;;;;;;;7.70;2.00;;;15.50;87.60;;;;;;5079137;28;20017;-87
2022/10/02 07:39:51;;;;;;;6.97;2.17;;;15.60;87.70;;;;;;5060817;28;20024;-87
2022/10/02 07:42:31;;;;;;;7.72;2.17;;;15.70;87.60;;;;;;5063185;28;20036;-88
2022/10/02 07:45:15;;;;;;;6.47;2.08;;;15.60;87.70;;;;;;5062910;28;20021;-87
2022/10/02 07:47:47;;;;;;;11.43;2.20;;;15.70;87.70;;;;;;5053536;28;20054;-87
2022/10/02 07:50:38;;;;;;;6.68;1.88;;;15.70;87.50;;;;;;5060160;28;20041;-88
2022/10/02 07:53:18;;;;;;;5.78;1.90;;;15.80;87.50;;;;;;5061227;28;20036;-87
2022/10/02 07:55:52;;;;;;;7.18;2.03;;;15.80;87.50;;;;;;5060378;28;20106;-87
2022/10/02 07:58:30;;;;;;;9.85;2.38;;;15.80;87.50;;;;;;5061010;28;20028;-88
2022/10/02 08:01:01;;;;;;;8.18;2.25;;;15.80;87.30;;;;;;5060406;28;20023;-88
2022/10/02 08:03:48;;;;;;;6.60;2.40;;;15.80;87.30;;;;;;5061665;28;20147;-88
2022/10/02 08:06:15;;;;;;;8.80;2.70;;;15.90;87.20;;;;;;5061216;28;20029;-86
2022/10/02 08:09:01;;;;;;;4.85;2.03;;;15.90;87.10;;;;;;5060028;28;20027;-87
2022/10/02 08:11:32;;;;;;;6.28;1.92;;;16.00;87.10;;;;;;5061620;28;20025;-86
2022/10/02 08:14:10;;;;;;;8.70;2.20;;;16.00;86.90;;;;;;5058524;28;20366;-86
2022/10/02 08:16:45;;;;;;;8.77;2.20;;;16.10;86.80;;;;;;5061185;28;20040;-86
2022/10/02 08:19:35;;;;;;;8.02;1.90;;;16.10;86.80;;;;;;5060444;28;20448;-81
2022/10/02 08:22:09;;;;;;;6.65;1.95;;;16.10;86.80;;;;;;5055873;28;20029;-81
2022/10/02 08:24:46;;;;;;;5.18;1.50;;;16.20;86.80;;;;;;5055092;28;20046;-80
2022/10/02 08:27:17;;;;;;;8.05;2.05;;;16.30;86.50;;;;;;5058000;28;20556;-80
2022/10/02 08:29:54;;;;;;;6.75;1.80;;;16.40;86.30;;;;;;5055715;28;20478;-80
2022/10/02 08:32:21;;;;;;;6.20;1.50;;;16.60;86.10;;;;;;5061487;28;20064;-80
2022/10/02 08:34:47;;;;;;;7.15;2.00;;;16.60;85.80;;;;;;5062760;28;20035;-80
2022/10/02 08:37:41;;;;;;;6.35;1.77;;;16.60;85.70;;;;;;5061247;28;20021;-80
2022/10/02 08:40:27;;;;;;;5.55;1.65;;;16.60;85.60;;;;;;5055580;28;20735;-80
2022/10/02 08:43:24;;;;;;;7.30;2.00;;;16.70;85.50;;;;;;5060337;28;20024;-80
2022/10/02 08:45:55;;;;;;;7.85;2.05;;;16.70;85.40;;;;;;5057503;28;20029;-80
2022/10/02 08:48:50;;;;;;;6.32;1.80;;;16.80;85.20;;;;;;5061837;28;20032;-80
2022/10/02 08:51:29;;;;;;;8.35;2.15;;;16.80;85.10;;;;;;5057431;28;20098;-80
2022/10/02 08:54:10;;;;;;;8.40;1.98;;;16.90;85.10;;;;;;5059349;28;20090;-79
2022/10/02 08:56:58;;;;;;;8.10;1.60;;;16.90;84.80;;;;;;5060158;28;20020;-79
2022/10/02 08:59:56;;;;;;;7.90;1.92;;;17.00;84.80;;;;;;5055163;28;20157;-82
2022/10/02 09:03:00;;;;;;;6.07;1.70;;;17.00;84.70;;;;;;5061631;28;20029;-80
2022/10/02 09:05:34;;;;;;;6.65;1.80;;;17.10;84.60;;;;;;5060555;28;20082;-80
2022/10/02 09:08:14;;;;;;;8.02;1.83;;;17.20;84.40;;;;;;5059293;28;20115;-80
2022/10/02 09:11:11;;;;;;;7.00;1.83;;;17.20;84.10;;;;;;5058465;28;20090;-80
2022/10/02 09:13:53;;;;;;;4.82;1.45;;;17.30;84.00;;;;;;5067177;28;20484;-80
2022/10/02 09:16:48;;;;;;;8.63;1.77;;;17.40;83.90;;;;;;5057800;28;20423;-80
2022/10/02 09:19:49;;;;;;;6.18;1.70;;;17.40;83.70;;;;;;5055733;28;20025;-80
2022/10/02 09:22:46;;;;;;;7.03;1.95;;;17.40;83.50;;;;;;5055187;28;20047;-80
2022/10/02 09:25:54;;;;;;;7.38;1.70;;;17.40;83.30;;;;;;5059589;28;20048;-80
2022/10/02 09:28:35;;;;;;;6.18;1.70;;;17.40;83.10;;;;;;5058282;28;20039;-80
2022/10/02 09:31:19;;;;;;;7.38;1.83;;;17.50;82.90;;;;;;5058933;28;20471;-80
2022/10/02 09:34:32;;;;;;;9.05;2.33;;;17.50;82.70;;;;;;5064561;28;20055;-81
2022/10/02 09:37:27;;;;;;;11.32;2.30;;;17.60;82.60;;;;;;5053286;28;20457;-80
2022/10/02 09:40:24;;;;;;;5.88;1.77;;;17.60;81.90;;;;;;5056288;28;20027;-80
2022/10/02 09:43:08;;;;;;;10.55;2.47;;;17.80;81.90;;;;;;5056888;28;20029;-80
2022/10/02 09:45:57;;;;;;;8.25;3.45;;;17.80;81.40;;;;;;5058342;28;20044;-80
2022/10/02 09:48:44;;;;;;;8.98;2.80;;;17.80;81.30;;;;;;5060208;28;20072;-81
2022/10/02 09:51:40;;;;;;;14.65;7.00;;;17.80;81.60;;;;;;5057864;28;20779;-80
2022/10/02 09:54:29;;;;;;;11.70;5.03;;;17.90;80.70;;;;;;5058535;28;20111;-81
2022/10/02 09:57:08;;;;;;;11.20;5.72;;;17.80;79.80;;;;;;5060525;28;20093;-87
2022/10/02 09:59:48;;;;;;;13.88;9.00;;;17.90;79.70;;;;;;5066369;28;20444;-89
2022/10/02 10:02:51;;;;;;;14.77;10.65;;;17.90;79.60;;;;;;5061899;28;20056;-89
2022/10/02 10:05:35;;;;;;;17.77;11.85;;;17.90;79.20;;;;;;5060746;28;20688;-90
2022/10/02 10:08:28;;;;;;;12.65;6.68;;;18.00;78.60;;;;;;5060468;28;20067;-88
2022/10/02 10:11:30;;;;;;;9.95;3.63;;;18.10;78.00;;;;;;5065444;28;20296;-94
2022/10/02 10:14:09;;;;;;;9.68;2.47;;;18.10;77.70;;;;;;5055381;28;20020;-80
2022/10/02 10:16:37;;;;;;;7.95;2.28;;;18.10;77.00;;;;;;5059082;28;20036;-81
2022/10/02 10:19:22;;;;;;;6.10;2.15;;;18.10;76.60;;;;;;5057659;28;20065;-80
2022/10/02 10:22:14;;;;;;;6.85;2.28;;;18.10;76.40;;;;;;5054549;28;20036;-80
2022/10/02 10:24:39;;;;;;;8.93;2.42;;;18.20;76.00;;;;;;5057452;28;20029;-80
2022/10/02 10:27:28;;;;;;;7.78;1.88;;;18.20;75.40;;;;;;5059496;28;20025;-80
2022/10/02 10:30:15;;;;;;;8.82;1.85;;;18.10;74.90;;;;;;5056694;28;20068;-80
2022/10/02 10:33:12;;;;;;;5.22;1.60;;;18.20;74.70;;;;;;5064482;28;20058;-80
2022/10/02 10:35:56;;;;;;;8.57;1.90;;;18.10;74.60;;;;;;5063316;28;20036;-80
2022/10/02 10:38:53;;;;;;;6.68;2.10;;;18.20;74.40;;;;;;5057927;28;20427;-80
2022/10/02 10:41:45;;;;;;;6.43;1.83;;;18.30;73.80;;;;;;5057501;28;20044;-80
2022/10/02 10:44:50;;;;;;;4.53;1.50;;;18.40;73.70;;;;;;5058678;28;20151;-81
2022/10/02 10:47:27;;;;;;;4.50;1.70;;;18.50;73.60;;;;;;5056591;28;20102;-80
2022/10/02 10:50:27;;;;;;;8.00;2.00;;;18.60;73.60;;;;;;5062209;28;20135;-81
2022/10/02 10:53:09;;;;;;;6.40;1.77;;;18.60;73.40;;;;;;5066679;28;20036;-80
2022/10/02 10:56:18;;;;;;;5.65;1.50;;;18.80;72.90;;;;;;5061617;28;20029;-81
2022/10/02 10:58:51;;;;;;;7.28;2.05;;;18.80;72.60;;;;;;5059503;28;20104;-81
2022/10/02 11:01:25;;;;;;;4.68;2.00;;;18.80;72.10;;;;;;5064577;28;20025;-81
2022/10/02 11:04:00;;;;;;;6.68;2.38;;;18.80;71.50;;;;;;5066864;28;20028;-80
2022/10/02 11:06:40;;;;;;;16.38;14.73;;;18.80;71.20;;;;;;5063756;28;20103;-80
2022/10/02 11:09:28;;;;;;;7.85;3.33;;;18.80;70.60;;;;;;5062709;28;20299;-80
2022/10/02 11:11:59;;;;;;;7.30;2.00;;;18.80;70.80;;;;;;5062840;28;20035;-80
2022/10/02 11:14:33;;;;;;;6.03;2.05;;;18.90;70.50;;;;;;5060785;28;20056;-80
2022/10/02 11:16:58;;;;;;;5.30;1.85;;;18.90;70.50;;;;;;5059058;28;20518;-80
2022/10/02 11:19:45;;;;;;;3.80;1.55;;;18.90;70.50;;;;;;5061070;28;20029;-80
2022/10/02 11:22:36;;;;;;;6.18;1.70;;;19.00;70.70;;;;;;5063817;28;20086;-80
2022/10/02 11:25:37;;;;;;;5.82;2.30;;;19.10;70.70;;;;;;5059554;28;20028;-81
2022/10/02 11:28:20;;;;;;;7.78;3.10;;;19.20;70.50;;;;;;5057632;28;20071;-80
2022/10/02 11:31:16;;;;;;;6.90;2.60;;;19.30;70.40;;;;;;5060504;28;20041;-80
2022/10/02 11:34:00;;;;;;;5.93;2.83;;;19.40;69.20;;;;;;5060980;28;20029;-80
2022/10/02 11:36:41;;;;;;;6.15;2.67;;;19.40;69.00;;;;;;5059710;28;20032;-80
2022/10/02 11:39:37;;;;;;;6.82;2.15;;;19.40;68.50;;;;;;5063309;28;20036;-81
2022/10/02 11:42:10;;;;;;;6.07;2.60;;;19.30;68.20;;;;;;5060579;28;20133;-79
2022/10/02 11:45:15;;;;;;;6.55;2.92;;;19.30;68.40;;;;;;5065464;28;20031;-81
2022/10/02 11:47:40;;;;;;;14.02;6.93;;;19.30;67.70;;;;;;5063218;28;20037;-79
2022/10/02 11:50:21;;;;;;;8.05;3.92;;;19.30;68.00;;;;;;5062369;28;20464;-79
2022/10/02 11:53:11;;;;;;;6.63;2.38;;;19.30;68.00;;;;;;5061895;28;20300;-79
2022/10/02 11:55:52;;;;;;;7.32;1.85;;;19.20;67.40;;;;;;5059316;28;20040;-79
2022/10/02 11:58:28;;;;;;;5.78;1.77;;;19.20;67.50;;;;;;5061140;28;20032;-80
2022/10/02 12:01:24;;;;;;;5.32;1.65;;;19.10;67.60;;;;;;5057763;28;20030;-80
2022/10/02 12:03:49;;;;;;;8.77;3.78;;;19.20;67.70;;;;;;5064858;28;20123;-80
2022/10/02 12:06:41;;;;;;;6.20;2.30;;;19.20;67.60;;;;;;5056806;28;20116;-80
2022/10/02 12:09:39;;;;;;;4.77;1.70;;;19.20;67.80;;;;;;5058530;28;20044;-81
2022/10/02 12:12:19;;;;;;;8.45;3.70;;;19.20;67.90;;;;;;5056587;28;20282;-81
2022/10/02 12:15:22;;;;;;;6.32;2.33;;;19.20;68.30;;;;;;5064660;28;20021;-81
2022/10/02 12:18:05;;;;;;;5.75;1.80;;;19.10;68.30;;;;;;5058038;28;20031;-81
2022/10/02 12:27:09;;;;;;;6.75;2.17;;;19.30;68.20;;;;;;5062052;28;20040;-81
2022/10/02 12:29:59;;;;;;;7.05;2.22;;;19.40;67.60;;;;;;5056184;28;20052;-81
2022/10/02 12:32:51;;;;;;;4.13;1.58;;;19.50;66.90;;;;;;5059174;28;20115;-81
2022/10/02 12:35:32;;;;;;;6.07;1.75;;;19.80;66.90;;;;;;5064626;28;20515;-80
2022/10/02 12:38:23;;;;;;;6.32;1.90;;;19.90;65.30;;;;;;5062741;28;20074;-80
2022/10/02 12:41:26;;;;;;;2.70;1.20;;;19.90;64.80;;;;;;5058976;28;20115;-81
2022/10/02 12:44:00;;;;;;;4.85;1.27;;;20.00;64.10;;;;;;5059040;28;20549;-80
2022/10/02 12:46:58;;;;;;;5.45;1.40;;;20.20;64.20;;;;;;5063447;28;20028;-80
2022/10/02 12:49:34;;;;;;;6.30;1.70;;;20.20;63.90;;;;;;5053698;28;20132;-80
2022/10/02 12:52:39;;;;;;;4.53;1.70;;;20.30;63.50;;;;;;5059805;28;20476;-80
2022/10/02 12:55:32;;;;;;;3.50;1.50;;;20.30;62.40;;;;;;5058082;28;20032;-82
2022/10/02 12:58:16;;;;;;;6.75;1.70;;;20.30;61.40;;;;;;5056208;28;20056;-82
2022/10/02 13:01:09;;;;;;;5.60;1.50;;;20.40;61.10;;;;;;5055996;28;20043;-82
2022/10/02 13:04:15;;;;;;;4.57;1.45;;;20.40;60.50;;;;;;5057197;28;20395;-82
2022/10/02 13:06:58;;;;;;;3.13;1.40;;;20.40;60.90;;;;;;5055968;28;20043;-81
2022/10/02 13:09:34;;;;;;;6.10;1.60;;;20.60;60.80;;;;;;5059282;28;20048;-81
2022/10/02 13:12:08;;;;;;;6.38;1.20;;;20.60;60.50;;;;;;5058216;28;20073;-81
2022/10/02 13:14:50;;;;;;;4.93;1.50;;;20.60;60.30;;;;;;5056571;28;20097;-82
2022/10/02 13:17:19;;;;;;;;;;;20.50;60.20;;;;;;5063622;28;20027;-82
2022/10/02 13:20:00;;;;;;;4.07;1.10;;;20.60;60.60;;;;;;5058509;28;19908;-82
2022/10/02 13:22:53;;;;;;;5.53;1.70;;;20.70;60.30;;;;;;5053634;28;20128;-82
2022/10/02 13:25:36;;;;;;;6.53;1.63;;;20.90;59.70;;;;;;5058682;28;20410;-83
2022/10/02 13:28:16;;;;;;;4.90;1.52;;;20.80;59.30;;;;;;5060787;28;20126;-82
2022/10/02 13:31:24;;;;;;;4.28;1.50;;;20.90;59.20;;;;;;5055508;28;20048;-82
2022/10/02 13:34:24;;;;;;;5.40;1.65;;;20.90;59.00;;;;;;5059681;28;20029;-83
2022/10/02 13:37:11;;;;;;;5.75;1.38;;;20.80;59.10;;;;;;5055749;28;20017;-82
2022/10/02 13:39:39;;;;;;;6.90;1.73;;;20.60;58.50;;;;;;5058278;28;20036;-82
2022/10/02 13:42:18;;;;;;;7.88;1.63;;;20.40;58.90;;;;;;5058344;28;20048;-82
2022/10/02 13:45:13;;;;;;;4.88;1.70;;;20.40;59.40;;;;;;5061436;28;20024;-82
2022/10/02 13:48:02;;;;;;;4.35;1.20;;;20.40;59.90;;;;;;5057905;28;20031;-83
2022/10/02 13:51:05;;;;;;;5.00;1.58;;;20.40;60.30;;;;;;5057658;28;20443;-82
2022/10/02 13:54:00;;;;;;;4.53;1.42;;;20.50;60.20;;;;;;5059217;28;20068;-82
2022/10/02 13:56:42;;;;;;;5.03;1.60;;;20.70;59.90;;;;;;5056739;28;20404;-82
2022/10/02 13:59:16;;;;;;;4.53;1.33;;;20.80;59.50;;;;;;5056526;28;20523;-82
2022/10/02 14:02:00;;;;;;;3.95;1.20;;;21.10;59.40;;;;;;5060216;28;20039;-81
2022/10/02 14:05:04;;;;;;;4.93;1.30;;;21.30;59.20;;;;;;5058196;28;20392;-82
2022/10/02 14:08:08;;;;;;;4.18;1.20;;;21.50;58.50;;;;;;5057787;28;20036;-83
2022/10/02 14:11:06;;;;;;;7.15;1.92;;;21.60;57.70;;;;;;5058129;28;20066;-82
2022/10/02 14:14:01;;;;;;;4.10;1.52;;;21.40;56.40;;;;;;5064999;28;20036;-83